createdAt,value
2017-10-16T00:02:12.551Z,79.90
2017-10-16T00:04:39.061Z,79.90
2017-10-16T00:07:05.549Z,80.10
2017-10-16T00:09:32.057Z,80.30
2017-10-16T00:11:59.256Z,79.60
2017-10-16T00:14:25.742Z,79.60
2017-10-16T00:16:53.029Z,79.80
2017-10-16T00:19:20.246Z,80.00
2017-10-16T00:21:46.701Z,80.00
2017-10-16T00:24:13.214Z,80.20
2017-10-16T00:26:39.669Z,80.10
2017-10-16T00:29:06.922Z,81.10
2017-10-16T00:31:33.414Z,81.10
2017-10-16T00:33:59.879Z,81.00
2017-10-16T00:36:26.379Z,81.40
2017-10-16T00:38:52.852Z,81.60
2017-10-16T00:41:20.074Z,81.50
2017-10-16T00:43:47.309Z,81.70
2017-10-16T00:46:13.781Z,81.60
2017-10-16T00:48:41.015Z,81.40
2017-10-16T00:51:07.461Z,81.40
2017-10-16T00:53:34.680Z,81.00
2017-10-16T00:56:01.190Z,81.00
2017-10-16T00:58:27.718Z,81.40
2017-10-16T01:00:54.250Z,81.40
2017-10-16T01:03:20.825Z,81.50
2017-10-16T01:05:47.309Z,81.80
2017-10-16T01:08:13.785Z,82.10
2017-10-16T01:10:40.997Z,82.30
2017-10-16T01:13:07.465Z,82.40
2017-10-16T01:15:33.985Z,82.60
2017-10-16T01:18:00.453Z,82.30
2017-10-16T01:20:26.918Z,82.90
2017-10-16T01:22:54.138Z,83.00
2017-10-16T01:25:21.414Z,82.40
2017-10-16T01:27:48.641Z,82.70
2017-10-16T01:30:15.877Z,82.70
2017-10-16T01:32:42.384Z,82.70
2017-10-16T01:35:08.903Z,82.80
2017-10-16T01:37:35.442Z,83.10
2017-10-16T01:40:01.913Z,83.20
2017-10-16T01:42:28.453Z,83.90
2017-10-16T01:44:54.995Z,83.50
2017-10-16T01:47:21.493Z,82.90
2017-10-16T01:49:48.074Z,82.70
2017-10-16T01:52:14.622Z,82.10
2017-10-16T01:54:41.886Z,82.00
2017-10-16T01:57:08.406Z,81.90
2017-10-16T01:59:35.706Z,82.50
2017-10-16T02:02:02.195Z,82.50
2017-10-16T02:04:29.570Z,83.50
2017-10-16T02:06:56.065Z,83.50
2017-10-16T02:09:22.562Z,84.10
2017-10-16T02:11:48.991Z,84.00
2017-10-16T02:14:15.422Z,84.20
2017-10-16T02:16:41.946Z,84.70
2017-10-16T02:19:09.110Z,84.40
2017-10-16T02:21:35.591Z,84.40
2017-10-16T02:24:02.058Z,84.80
2017-10-16T02:26:29.233Z,84.60
2017-10-16T02:28:55.658Z,84.40
2017-10-16T02:31:22.083Z,84.60
2017-10-16T02:33:49.263Z,86.10
2017-10-16T02:36:15.705Z,86.10
2017-10-16T02:38:42.156Z,86.10
2017-10-16T02:41:09.510Z,86.00
2017-10-16T02:43:36.711Z,86.20
2017-10-16T02:46:03.161Z,86.20
2017-10-16T02:48:29.686Z,86.10
2017-10-16T02:50:56.157Z,85.80
2017-10-16T02:53:22.689Z,85.90
2017-10-16T02:55:49.219Z,87.60
2017-10-16T02:58:15.661Z,88.40
2017-10-16T03:00:42.883Z,88.50
2017-10-16T03:03:09.342Z,88.50
2017-10-16T03:05:35.933Z,88.70
2017-10-16T03:08:02.378Z,89.00
2017-10-16T03:10:28.869Z,88.80
2017-10-16T03:12:56.033Z,89.30
2017-10-16T03:15:23.231Z,89.00
2017-10-16T03:17:49.667Z,89.00
2017-10-16T03:20:16.099Z,88.60
2017-10-16T03:22:42.578Z,88.80
2017-10-16T03:25:09.774Z,88.10
2017-10-16T03:27:36.286Z,88.10
2017-10-16T03:30:02.768Z,88.50
2017-10-16T03:32:29.998Z,88.50
2017-10-16T03:34:56.417Z,88.50
2017-10-16T03:37:22.889Z,87.90
2017-10-16T03:39:50.062Z,86.50
2017-10-16T03:42:17.225Z,86.50
2017-10-16T03:44:43.826Z,86.50
2017-10-16T03:47:11.006Z,85.60
2017-10-16T03:49:38.205Z,85.30
2017-10-16T03:52:04.673Z,85.20
2017-10-16T03:54:31.869Z,84.90
2017-10-16T03:56:58.325Z,84.90
2017-10-16T03:59:24.833Z,84.80
2017-10-16T04:01:52.134Z,85.20
2017-10-16T04:04:18.568Z,85.20
2017-10-16T04:06:45.053Z,85.90
2017-10-16T04:09:11.511Z,86.70
2017-10-16T04:11:37.965Z,86.60
2017-10-16T04:14:04.410Z,87.20
2017-10-16T04:16:30.876Z,87.80
2017-10-16T04:18:57.304Z,88.20
2017-10-16T04:21:23.730Z,86.80
2017-10-16T04:23:50.185Z,87.60
2017-10-16T04:26:16.622Z,87.70
2017-10-16T04:28:43.042Z,88.20
2017-10-16T04:31:09.518Z,88.50
2017-10-16T04:33:36.757Z,89.90
2017-10-16T04:36:03.218Z,89.80
2017-10-16T04:38:29.666Z,89.70
2017-10-16T04:40:56.858Z,90.00
2017-10-16T04:43:23.327Z,90.00
2017-10-16T04:45:49.798Z,90.10
2017-10-16T04:48:16.274Z,90.20
2017-10-16T04:50:42.724Z,90.10
2017-10-16T04:53:09.220Z,90.40
2017-10-16T04:55:35.713Z,90.30
2017-10-16T04:58:02.170Z,90.30
2017-10-16T05:00:28.608Z,90.70
2017-10-16T05:02:55.064Z,90.70
2017-10-16T05:05:21.529Z,90.70
2017-10-16T05:07:48.066Z,90.90
2017-10-16T05:10:14.481Z,90.80
2017-10-16T05:12:40.942Z,90.90
2017-10-16T05:15:07.395Z,90.70
2017-10-16T05:17:34.606Z,90.80
2017-10-16T05:20:01.027Z,90.80
2017-10-16T05:22:27.433Z,90.70
2017-10-16T05:24:53.906Z,90.70
2017-10-16T05:27:21.105Z,90.70
2017-10-16T05:29:47.566Z,90.70
2017-10-16T05:32:14.039Z,90.90
2017-10-16T05:34:40.481Z,90.80
2017-10-16T05:37:07.650Z,90.60
2017-10-16T05:39:34.854Z,90.50
2017-10-16T05:42:01.306Z,90.50
2017-10-16T05:44:27.850Z,90.40
2017-10-16T05:46:54.370Z,90.30
2017-10-16T05:49:21.597Z,90.30
2017-10-16T05:51:48.093Z,90.30
2017-10-16T05:54:14.593Z,90.40
2017-10-16T05:56:41.086Z,90.20
2017-10-16T05:59:07.573Z,90.00
2017-10-16T06:01:34.780Z,89.60
2017-10-16T06:04:01.238Z,89.60
2017-10-16T06:06:27.736Z,89.40
2017-10-16T06:08:54.215Z,89.20
2017-10-16T06:11:20.743Z,88.80
2017-10-16T06:13:47.279Z,88.30
2017-10-16T06:16:14.540Z,87.10
2017-10-16T06:18:41.021Z,87.10
2017-10-16T06:21:07.546Z,86.90
2017-10-16T06:23:34.006Z,86.70
2017-10-16T06:26:00.565Z,86.30
2017-10-16T06:28:27.779Z,84.30
2017-10-16T06:30:54.253Z,84.20
2017-10-16T06:33:21.502Z,83.90
2017-10-16T06:35:48.725Z,84.30
2017-10-16T06:38:15.201Z,84.30
2017-10-16T06:40:42.455Z,84.80
2017-10-16T06:43:09.771Z,85.40
2017-10-16T06:45:36.279Z,84.60
2017-10-16T06:48:03.632Z,83.00
2017-10-16T06:50:30.110Z,82.90
2017-10-16T06:52:57.416Z,80.60
2017-10-16T06:55:23.922Z,80.60
2017-10-16T06:57:51.157Z,78.80
2017-10-16T07:00:17.635Z,78.90
2017-10-16T07:02:44.180Z,78.10
2017-10-16T07:05:10.645Z,77.60
2017-10-16T07:07:37.200Z,76.60
2017-10-16T07:10:04.412Z,74.30
2017-10-16T07:12:30.866Z,74.30
2017-10-16T07:14:57.298Z,73.50
2017-10-16T07:17:23.798Z,73.60
2017-10-16T07:19:50.298Z,73.50
2017-10-16T07:22:17.465Z,73.40
2017-10-16T07:24:43.910Z,73.30
2017-10-16T07:27:10.384Z,72.60
2017-10-16T07:29:36.841Z,72.30
2017-10-16T07:32:04.068Z,71.40
2017-10-16T07:34:30.522Z,71.50
2017-10-16T07:36:57.709Z,70.20
2017-10-16T07:39:24.151Z,69.50
2017-10-16T07:41:50.622Z,67.80
2017-10-16T07:44:17.109Z,67.30
2017-10-16T07:46:43.572Z,66.50
2017-10-16T07:49:10.034Z,64.50
2017-10-16T07:51:36.471Z,61.30
2017-10-16T07:54:02.909Z,59.80
2017-10-16T07:56:30.090Z,57.60
2017-10-16T07:58:56.532Z,57.20
2017-10-16T08:01:22.990Z,55.10
2017-10-16T08:03:49.420Z,51.70
2017-10-16T08:06:16.588Z,51.20
2017-10-16T08:08:43.001Z,51.00
2017-10-16T08:11:09.465Z,51.80
2017-10-16T08:13:36.633Z,51.80
2017-10-16T08:16:03.101Z,51.80
2017-10-16T08:18:29.599Z,49.90
2017-10-16T08:20:56.774Z,46.40
2017-10-16T08:23:23.269Z,46.30
2017-10-16T08:25:49.803Z,45.10
2017-10-16T08:28:16.304Z,44.60
2017-10-16T08:30:42.766Z,42.00
2017-10-16T08:33:10.031Z,40.60
2017-10-16T08:35:37.277Z,40.00
2017-10-16T08:38:03.796Z,39.80
2017-10-16T08:40:30.302Z,39.50
2017-10-16T08:42:56.859Z,38.80
2017-10-16T08:45:23.356Z,38.20
2017-10-16T08:47:49.885Z,37.90
2017-10-16T08:50:16.409Z,37.80
2017-10-16T08:52:42.914Z,37.20
2017-10-16T08:55:10.166Z,35.90
2017-10-16T08:57:36.678Z,35.90
2017-10-16T09:00:03.977Z,34.20
2017-10-16T09:02:30.494Z,33.40
2017-10-16T09:04:56.997Z,33.10
2017-10-16T09:07:23.537Z,32.10
2017-10-16T09:09:50.037Z,32.00
2017-10-16T09:12:17.274Z,31.60
2017-10-16T09:14:43.777Z,30.90
2017-10-16T09:17:10.305Z,30.00
2017-10-16T09:19:37.638Z,30.30
2017-10-16T09:22:04.919Z,29.80
2017-10-16T09:24:31.420Z,29.70
2017-10-16T09:26:58.002Z,30.40
2017-10-16T09:29:24.482Z,29.60
2017-10-16T09:31:51.079Z,30.50
2017-10-16T09:34:17.589Z,30.30
2017-10-16T09:36:44.818Z,31.40
2017-10-16T09:39:11.321Z,31.20
2017-10-16T09:41:37.824Z,31.20
2017-10-16T09:44:04.349Z,32.40
2017-10-16T09:46:31.555Z,32.00
2017-10-16T09:48:58.093Z,31.90
2017-10-16T09:51:24.605Z,31.60
2017-10-16T09:53:51.898Z,31.80
2017-10-16T09:56:18.390Z,31.00
2017-10-16T09:58:45.667Z,30.50
2017-10-16T10:01:12.142Z,30.50
2017-10-16T10:03:39.364Z,30.20
2017-10-16T10:06:05.850Z,30.10
2017-10-16T10:08:32.371Z,29.50
2017-10-16T10:10:58.881Z,29.10
2017-10-16T10:13:26.102Z,29.90
2017-10-16T10:15:52.608Z,29.90
2017-10-16T10:18:19.083Z,29.60
2017-10-16T10:20:45.566Z,28.20
2017-10-16T10:23:12.074Z,29.30
2017-10-16T10:25:38.613Z,28.50
2017-10-16T10:28:05.076Z,29.00
2017-10-16T10:30:31.541Z,28.80
2017-10-16T10:32:57.970Z,28.30
2017-10-16T10:35:24.444Z,28.10
2017-10-16T10:37:50.867Z,28.30
2017-10-16T10:40:17.302Z,28.40
2017-10-16T10:42:43.749Z,27.30
2017-10-16T10:45:10.210Z,27.80
2017-10-16T10:47:37.382Z,27.20
2017-10-16T10:50:03.843Z,27.20
2017-10-16T10:52:31.082Z,28.60
2017-10-16T10:54:57.546Z,28.50
2017-10-16T10:57:24.781Z,29.40
2017-10-16T10:59:51.270Z,29.30
2017-10-16T11:02:19.459Z,30.20
2017-10-16T11:04:47.104Z,31.70
2017-10-16T11:07:13.837Z,31.80
2017-10-16T11:09:40.326Z,32.30
2017-10-16T11:12:06.814Z,31.60
2017-10-16T11:14:33.342Z,32.60
2017-10-16T11:16:59.894Z,32.20
2017-10-16T11:19:26.438Z,32.90
2017-10-16T11:21:52.917Z,34.20
2017-10-16T11:24:19.430Z,33.90
2017-10-16T11:26:46.693Z,33.70
2017-10-16T11:29:13.978Z,33.90
2017-10-16T11:31:40.457Z,33.80
2017-10-16T11:34:06.951Z,34.00
2017-10-16T11:36:33.463Z,34.40
2017-10-16T11:38:59.977Z,34.20
2017-10-16T11:41:27.222Z,33.10
2017-10-16T11:43:53.730Z,33.00
2017-10-16T11:46:20.270Z,33.60
2017-10-16T11:48:46.773Z,33.80
2017-10-16T11:51:13.242Z,35.90
2017-10-16T11:53:39.744Z,34.40
2017-10-16T11:56:06.249Z,34.10
2017-10-16T11:58:32.762Z,33.90
2017-10-16T12:01:00.034Z,31.90
2017-10-16T12:03:26.527Z,31.90
2017-10-16T12:05:53.066Z,33.40
2017-10-16T12:08:19.591Z,34.40
2017-10-16T12:10:46.118Z,34.70
2017-10-16T12:13:12.617Z,32.30
2017-10-16T12:15:39.166Z,32.90
2017-10-16T12:18:05.664Z,32.70
2017-10-16T12:20:32.275Z,32.80
2017-10-16T12:22:59.510Z,33.50
2017-10-16T12:25:26.033Z,34.20
2017-10-16T12:27:52.545Z,32.60
2017-10-16T12:30:19.081Z,33.80
2017-10-16T12:32:45.633Z,34.00
2017-10-16T12:35:12.146Z,35.20
2017-10-16T12:37:38.663Z,34.90
2017-10-16T12:40:05.185Z,35.70
2017-10-16T12:42:31.857Z,35.00
2017-10-16T12:44:58.377Z,34.40
2017-10-16T12:47:25.639Z,34.00
2017-10-16T12:49:52.177Z,34.00
2017-10-16T12:52:18.674Z,35.90
2017-10-16T12:54:45.134Z,35.30
2017-10-16T12:57:11.686Z,35.70
2017-10-16T12:59:38.198Z,36.00
2017-10-16T13:02:04.691Z,36.30
2017-10-16T13:04:31.241Z,36.40
2017-10-16T13:06:58.519Z,36.60
2017-10-16T13:09:25.038Z,36.60
2017-10-16T13:11:52.278Z,36.90
2017-10-16T13:14:19.578Z,37.00
2017-10-16T13:16:46.118Z,37.00
2017-10-16T13:19:12.846Z,36.80
2017-10-16T13:21:39.360Z,35.60
2017-10-16T13:24:06.598Z,35.30
2017-10-16T13:26:33.838Z,35.80
2017-10-16T13:29:01.099Z,35.00
2017-10-16T13:31:27.651Z,35.50
2017-10-16T13:33:54.152Z,35.80
2017-10-16T13:36:20.699Z,35.40
2017-10-16T13:38:47.948Z,35.80
2017-10-16T13:41:15.237Z,35.50
2017-10-16T13:43:41.787Z,35.40
2017-10-16T13:46:08.402Z,34.50
2017-10-16T13:48:34.955Z,35.20
2017-10-16T13:51:02.247Z,34.50
2017-10-16T13:53:28.772Z,34.50
2017-10-16T13:55:55.262Z,35.70
2017-10-16T13:58:21.879Z,36.00
2017-10-16T14:00:48.401Z,35.50
2017-10-16T14:03:15.685Z,35.60
2017-10-16T14:05:42.237Z,35.60
2017-10-16T14:08:08.752Z,34.90
2017-10-16T14:10:35.278Z,35.00
2017-10-16T14:13:01.793Z,36.40
2017-10-16T14:15:28.374Z,36.00
2017-10-16T14:17:54.890Z,35.20
2017-10-16T14:20:21.403Z,35.10
2017-10-16T14:22:48.646Z,36.20
2017-10-16T14:25:15.905Z,36.70
2017-10-16T14:27:42.431Z,36.70
2017-10-16T14:30:09.778Z,37.10
2017-10-16T14:32:37.018Z,37.30
2017-10-16T14:35:03.557Z,37.30
2017-10-16T14:37:30.107Z,37.80
2017-10-16T14:39:56.617Z,37.30
2017-10-16T14:42:23.130Z,38.30
2017-10-16T14:44:49.686Z,39.30
2017-10-16T14:47:16.205Z,40.90
2017-10-16T14:49:42.753Z,39.70
2017-10-16T14:52:09.266Z,39.90
2017-10-16T14:54:35.790Z,40.50
2017-10-16T14:57:02.325Z,41.30
2017-10-16T14:59:28.873Z,39.90
2017-10-16T15:01:55.377Z,40.90
2017-10-16T15:04:21.873Z,39.80
2017-10-16T15:06:48.394Z,40.50
2017-10-16T15:09:14.920Z,39.90
2017-10-16T15:11:41.440Z,41.00
2017-10-16T15:14:07.961Z,40.60
2017-10-16T15:16:34.563Z,40.10
2017-10-16T15:19:01.866Z,41.00
2017-10-16T15:21:28.370Z,40.80
2017-10-16T15:23:54.886Z,40.90
2017-10-16T15:26:22.164Z,43.10
2017-10-16T15:28:48.666Z,43.00
2017-10-16T15:31:15.950Z,41.60
2017-10-16T15:33:42.514Z,41.60
2017-10-16T15:36:09.831Z,41.60
2017-10-16T15:38:36.334Z,41.60
2017-10-16T15:41:02.875Z,42.10
2017-10-16T15:43:30.149Z,41.70
2017-10-16T15:45:56.705Z,41.50
2017-10-16T15:48:23.246Z,42.00
2017-10-16T15:50:49.803Z,42.20
2017-10-16T15:53:16.335Z,43.20
2017-10-16T15:55:42.894Z,42.00
2017-10-16T15:58:10.177Z,41.40
2017-10-16T16:00:36.713Z,41.30
2017-10-16T16:03:03.229Z,42.40
2017-10-16T16:05:30.484Z,41.70
2017-10-16T16:07:57.788Z,42.10
2017-10-16T16:10:24.393Z,42.00
2017-10-16T16:12:51.034Z,43.40
2017-10-16T16:15:17.534Z,44.10
2017-10-16T16:17:44.816Z,45.80
2017-10-16T16:20:11.345Z,45.80
2017-10-16T16:22:37.934Z,46.10
2017-10-16T16:25:04.457Z,46.70
2017-10-16T16:27:31.716Z,46.10
2017-10-16T16:29:58.258Z,46.10
2017-10-16T16:32:25.600Z,46.50
2017-10-16T16:34:52.177Z,46.50
2017-10-16T16:37:18.737Z,46.60
2017-10-16T16:39:45.298Z,46.60
2017-10-16T16:42:11.910Z,47.00
2017-10-16T16:44:38.434Z,47.40
2017-10-16T16:47:04.933Z,46.50
2017-10-16T16:49:31.564Z,46.30
2017-10-16T16:51:58.066Z,46.10
2017-10-16T16:54:24.622Z,46.10
2017-10-16T16:56:51.924Z,46.30
2017-10-16T16:59:19.178Z,46.80
2017-10-16T17:01:46.433Z,47.20
2017-10-16T17:04:12.947Z,47.20
2017-10-16T17:06:40.230Z,47.60
2017-10-16T17:09:06.762Z,47.60
2017-10-16T17:11:33.348Z,47.90
2017-10-16T17:13:59.828Z,47.60
2017-10-16T17:16:26.334Z,48.00
2017-10-16T17:18:52.864Z,47.80
2017-10-16T17:21:20.807Z,48.90
2017-10-16T17:23:48.102Z,48.70
2017-10-16T17:26:15.471Z,48.70
2017-10-16T17:28:41.931Z,48.30
2017-10-16T17:31:08.432Z,48.30
2017-10-16T17:33:35.010Z,48.50
2017-10-16T17:36:03.006Z,48.30
2017-10-16T17:38:29.515Z,48.20
2017-10-16T17:40:56.021Z,48.30
2017-10-16T17:43:22.531Z,48.50
2017-10-16T17:45:49.746Z,49.50
2017-10-16T17:48:16.351Z,49.40
2017-10-16T17:50:42.876Z,48.80
2017-10-16T17:53:09.478Z,49.00
2017-10-16T17:55:35.973Z,48.30
2017-10-16T17:58:02.534Z,48.60
2017-10-16T18:00:29.050Z,48.30
2017-10-16T18:02:55.739Z,47.80
2017-10-16T18:05:22.308Z,47.50
2017-10-16T18:07:48.801Z,48.10
2017-10-16T18:10:16.049Z,48.40
2017-10-16T18:12:43.287Z,48.80
2017-10-16T18:15:09.801Z,48.70
2017-10-16T18:17:36.319Z,49.20
2017-10-16T18:20:02.818Z,49.50
2017-10-16T18:22:30.123Z,50.10
2017-10-16T18:24:56.669Z,50.10
2017-10-16T18:27:23.157Z,50.00
2017-10-16T18:29:49.723Z,50.60
2017-10-16T18:32:16.239Z,51.50
2017-10-16T18:34:42.765Z,51.60
2017-10-16T18:37:09.294Z,52.60
2017-10-16T18:39:35.847Z,52.60
2017-10-16T18:42:02.421Z,52.90
2017-10-16T18:44:29.738Z,53.00
2017-10-16T18:46:56.284Z,52.90
2017-10-16T18:49:22.807Z,53.50
2017-10-16T18:51:49.397Z,54.10
2017-10-16T18:54:16.664Z,54.50
2017-10-16T18:56:43.187Z,54.50
2017-10-16T18:59:10.437Z,54.60
2017-10-16T19:01:36.969Z,54.50
2017-10-16T19:04:04.196Z,55.10
2017-10-16T19:06:30.756Z,55.00
2017-10-16T19:08:57.291Z,55.40
2017-10-16T19:11:23.793Z,55.10
2017-10-16T19:13:50.353Z,54.90
2017-10-16T19:16:17.712Z,55.60
2017-10-16T19:18:44.248Z,55.50
2017-10-16T19:21:10.815Z,55.60
2017-10-16T19:23:37.361Z,55.70
2017-10-16T19:26:03.977Z,55.80
2017-10-16T19:28:30.546Z,56.00
2017-10-16T19:30:57.922Z,56.00
2017-10-16T19:33:24.421Z,56.00
2017-10-16T19:35:50.979Z,56.00
2017-10-16T19:38:17.541Z,56.40
2017-10-16T19:40:44.086Z,56.90
2017-10-16T19:43:10.618Z,57.40
2017-10-16T19:45:37.902Z,58.70
2017-10-16T19:48:04.436Z,58.10
2017-10-16T19:50:30.987Z,58.40
2017-10-16T19:52:58.190Z,58.70
2017-10-16T19:55:24.701Z,59.30
2017-10-16T19:57:51.208Z,59.70
2017-10-16T20:00:17.792Z,59.60
2017-10-16T20:02:44.350Z,59.40
2017-10-16T20:05:10.862Z,59.40
2017-10-16T20:07:37.433Z,59.80
2017-10-16T20:10:03.988Z,60.30
2017-10-16T20:12:30.531Z,60.30
2017-10-16T20:14:57.144Z,61.10
2017-10-16T20:17:23.662Z,61.10
2017-10-16T20:19:50.225Z,62.10
2017-10-16T20:22:16.764Z,62.20
2017-10-16T20:24:43.296Z,62.10
2017-10-16T20:27:09.870Z,62.70
2017-10-16T20:29:37.141Z,64.50
2017-10-16T20:32:03.699Z,64.40
2017-10-16T20:34:30.281Z,63.90
2017-10-16T20:36:57.594Z,63.90
2017-10-16T20:39:24.162Z,63.70
2017-10-16T20:41:50.686Z,63.80
2017-10-16T20:44:17.219Z,64.90
2017-10-16T20:46:43.733Z,64.20
2017-10-16T20:49:10.378Z,64.40
2017-10-16T20:51:36.965Z,65.00
2017-10-16T20:54:03.469Z,65.70
2017-10-16T20:56:30.031Z,65.90
2017-10-16T20:58:56.560Z,66.50
2017-10-16T21:01:23.821Z,68.10
2017-10-16T21:03:51.037Z,69.30
2017-10-16T21:06:17.596Z,69.30
2017-10-16T21:08:44.869Z,69.90
2017-10-16T21:11:11.462Z,69.90
2017-10-16T21:13:38.050Z,69.50
2017-10-16T21:16:04.561Z,70.10
2017-10-16T21:18:31.827Z,70.90
2017-10-16T21:20:58.362Z,70.90
2017-10-16T21:23:25.604Z,71.50
2017-10-16T21:25:52.132Z,71.40
2017-10-16T21:28:18.670Z,71.90
2017-10-16T21:30:45.902Z,71.60
2017-10-16T21:33:12.404Z,71.60
2017-10-16T21:35:38.890Z,72.60
2017-10-16T21:38:06.166Z,73.20
2017-10-16T21:40:32.686Z,73.20
2017-10-16T21:42:59.228Z,72.90
2017-10-16T21:45:25.765Z,73.30
2017-10-16T21:47:52.245Z,73.00
2017-10-16T21:50:18.764Z,73.00
2017-10-16T21:52:45.279Z,73.10
2017-10-16T21:55:11.839Z,72.80
2017-10-16T21:57:38.368Z,73.60
2017-10-16T22:00:04.873Z,72.90
2017-10-16T22:02:31.396Z,72.70
2017-10-16T22:04:57.934Z,72.40
2017-10-16T22:07:24.483Z,72.20
2017-10-16T22:09:50.985Z,72.10
2017-10-16T22:12:18.242Z,69.80
2017-10-16T22:14:45.497Z,68.90
2017-10-16T22:17:12.055Z,68.90
2017-10-16T22:19:38.590Z,68.70
2017-10-16T22:22:05.105Z,68.40
2017-10-16T22:24:31.629Z,67.80
2017-10-16T22:26:58.905Z,68.80
2017-10-16T22:29:25.442Z,68.70
2017-10-16T22:31:51.982Z,69.00
2017-10-16T22:34:18.517Z,69.10
2017-10-16T22:36:45.034Z,69.40
2017-10-16T22:39:11.583Z,69.20
2017-10-16T22:41:38.127Z,69.00
2017-10-16T22:44:04.639Z,68.30
2017-10-16T22:46:31.151Z,69.20
2017-10-16T22:48:58.399Z,70.00
2017-10-16T22:51:24.770Z,70.00
2017-10-16T22:54:03.282Z,70.30
2017-10-16T22:56:29.773Z,70.60
2017-10-16T22:58:56.290Z,70.60
2017-10-16T23:01:22.777Z,71.10
2017-10-16T23:03:49.287Z,71.00
2017-10-16T23:06:16.549Z,70.20
2017-10-16T23:08:43.103Z,70.10
2017-10-16T23:11:09.606Z,69.60
2017-10-16T23:13:36.854Z,69.00
2017-10-16T23:16:03.355Z,68.90
2017-10-16T23:18:29.865Z,68.70
2017-10-16T23:20:56.398Z,69.20
2017-10-16T23:23:22.943Z,69.20
2017-10-16T23:25:49.441Z,69.40
2017-10-16T23:28:16.687Z,70.20
2017-10-16T23:30:43.204Z,70.20
2017-10-16T23:33:10.470Z,70.50
2017-10-16T23:35:37.726Z,70.80
2017-10-16T23:38:04.277Z,70.80
2017-10-16T23:40:30.767Z,71.20
2017-10-16T23:42:57.327Z,72.20
2017-10-16T23:45:23.874Z,71.50
2017-10-16T23:47:50.402Z,71.80
2017-10-16T23:50:16.918Z,71.80
2017-10-16T23:52:44.177Z,72.70
2017-10-16T23:55:11.449Z,72.90
2017-10-16T23:57:37.961Z,72.90
